Time;durP1;ratioP1;P1;durP2;ratioP2;P2;SDS_P1;SDS_P2;PMS_P1;PMS_P2;Temp;Humidity;BMP_temperature;BMP_pressure;BME280_temperature;BME280_humidity;BME280_pressure;Samples;Min_cycle;Max_cycle;Signal;HPM_P1;HPM_P2
2021/01/31 00:01:14;;;;;;;120.37;63.30;;;7.10;95.40;;;;;;4994778;28;20240;-62
2021/01/31 00:03:41;;;;;;;128.33;70.27;;;7.10;95.50;;;;;;5000289;28;20211;-61
2021/01/31 00:06:07;;;;;;;137.43;70.67;;;7.10;95.50;;;;;;5010608;28;20517;-62
2021/01/31 00:08:34;;;;;;;134.70;68.83;;;7.10;95.60;;;;;;5007324;28;20230;-62
2021/01/31 00:11:00;;;;;;;121.40;62.83;;;7.10;95.60;;;;;;4999710;28;20240;-62
2021/01/31 00:13:29;;;;;;;119.13;65.90;;;7.10;95.70;;;;;;5002402;28;20221;-62
2021/01/31 00:15:56;;;;;;;133.17;68.77;;;7.10;95.70;;;;;;5007027;28;20218;-62
2021/01/31 00:18:27;;;;;;;118.80;66.53;;;7.20;95.70;;;;;;5011922;28;20528;-62
2021/01/31 00:20:57;;;;;;;119.27;65.27;;;7.20;95.80;;;;;;4991872;28;20841;-62
2021/01/31 00:23:25;;;;;;;123.37;69.00;;;7.20;95.80;;;;;;5009528;28;20670;-61
2021/01/31 00:25:52;;;;;;;127.00;67.40;;;7.20;95.80;;;;;;5000720;28;20624;-62
2021/01/31 00:28:21;;;;;;;118.27;63.57;;;7.20;95.80;;;;;;5001714;28;20207;-62
2021/01/31 00:30:48;;;;;;;112.23;63.23;;;7.20;95.80;;;;;;5009581;28;20218;-62
2021/01/31 00:33:20;;;;;;;128.63;68.97;;;7.20;95.90;;;;;;5009878;28;20212;-62
2021/01/31 00:35:52;;;;;;;130.40;69.10;;;7.30;95.90;;;;;;5009988;28;20238;-62
2021/01/31 00:38:21;;;;;;;123.13;67.90;;;7.30;95.90;;;;;;4993216;28;20212;-62
2021/01/31 00:40:48;;;;;;;131.30;66.33;;;7.30;95.90;;;;;;5009967;28;20544;-62
2021/01/31 00:43:16;;;;;;;122.60;67.53;;;7.30;95.90;;;;;;5009593;28;20212;-62
2021/01/31 00:45:43;;;;;;;128.50;69.87;;;7.30;95.90;;;;;;5010028;28;20208;-62
2021/01/31 00:48:11;;;;;;;145.97;69.90;;;7.30;95.90;;;;;;5017182;28;20212;-61
2021/01/31 00:50:38;;;;;;;131.10;69.17;;;7.40;95.90;;;;;;5012777;28;20210;-61
2021/01/31 00:53:07;;;;;;;135.60;66.83;;;7.40;95.90;;;;;;5013115;28;20516;-61
2021/01/31 00:55:34;;;;;;;132.87;69.30;;;7.50;95.90;;;;;;5020084;28;20495;-61
2021/01/31 00:58:01;;;;;;;122.67;66.37;;;7.50;95.90;;;;;;5012838;28;20255;-62
2021/01/31 01:00:29;;;;;;;124.40;68.93;;;7.60;95.90;;;;;;5015448;28;20474;-61
2021/01/31 01:02:57;;;;;;;119.77;66.23;;;7.60;95.80;;;;;;5011621;28;20207;-62
2021/01/31 01:05:28;;;;;;;147.63;68.43;;;7.60;95.80;;;;;;5010583;28;20221;-62
2021/01/31 01:07:55;;;;;;;131.23;70.97;;;7.60;95.70;;;;;;4996597;28;20231;-62
2021/01/31 01:10:28;;;;;;;183.93;77.47;;;7.60;95.60;;;;;;4998419;28;20235;-62
2021/01/31 01:12:56;;;;;;;188.33;74.83;;;7.60;95.60;;;;;;5013946;28;20211;-62
2021/01/31 01:15:26;;;;;;;162.17;72.50;;;7.60;95.60;;;;;;5009706;28;20632;-62
2021/01/31 01:17:56;;;;;;;155.83;70.83;;;7.60;95.60;;;;;;5006400;28;20782;-61
2021/01/31 01:20:24;;;;;;;180.70;76.60;;;7.60;95.60;;;;;;5005602;28;20635;-62
2021/01/31 01:22:52;;;;;;;129.07;64.83;;;7.60;95.60;;;;;;5011271;28;20214;-61
2021/01/31 01:25:21;;;;;;;157.87;70.80;;;7.60;95.60;;;;;;5013711;28;20793;-61
2021/01/31 01:27:47;;;;;;;143.20;67.87;;;7.70;95.60;;;;;;5014733;28;20215;-62
2021/01/31 01:30:19;;;;;;;152.83;67.93;;;7.70;95.60;;;;;;5010605;28;20222;-61
2021/01/31 01:32:48;;;;;;;136.00;67.80;;;7.70;95.60;;;;;;4992931;28;20216;-61
2021/01/31 01:35:16;;;;;;;133.90;65.27;;;7.70;95.50;;;;;;5014666;28;20222;-61
2021/01/31 01:37:44;;;;;;;126.77;63.23;;;7.60;95.50;;;;;;5017805;28;20237;-61
2021/01/31 01:40:22;;;;;;;124.13;63.93;;;7.70;95.50;;;;;;5011296;28;20636;-61
2021/01/31 01:42:49;;;;;;;144.23;67.70;;;7.60;95.50;;;;;;5014426;28;20204;-61
2021/01/31 01:45:17;;;;;;;119.73;62.10;;;7.60;95.50;;;;;;5010381;28;20239;-61
2021/01/31 01:47:46;;;;;;;133.10;65.17;;;7.60;95.50;;;;;;4997774;28;20298;-61
2021/01/31 01:50:28;;;;;;;127.20;62.37;;;7.60;95.40;;;;;;5008281;28;20224;-61
2021/01/31 01:53:00;;;;;;;113.27;61.37;;;7.60;95.40;;;;;;5012562;28;20222;-61
2021/01/31 01:55:32;;;;;;;127.77;61.83;;;7.60;95.40;;;;;;5012649;28;20218;-61
2021/01/31 01:58:05;;;;;;;127.43;62.97;;;7.60;95.50;;;;;;5007302;28;20224;-61
2021/01/31 02:00:34;;;;;;;148.70;64.63;;;7.70;95.50;;;;;;5009383;28;20211;-62
2021/01/31 02:03:08;;;;;;;146.00;63.57;;;7.60;95.50;;;;;;5008363;28;20216;-61
2021/01/31 02:05:37;;;;;;;143.40;64.67;;;7.70;95.50;;;;;;5003749;28;20294;-61
2021/01/31 02:08:05;;;;;;;131.33;63.30;;;7.70;95.50;;;;;;5013122;28;20215;-61
2021/01/31 02:10:31;;;;;;;140.80;64.27;;;7.70;95.50;;;;;;5010294;28;20246;-61
2021/01/31 02:13:01;;;;;;;138.13;64.63;;;7.70;95.50;;;;;;5012179;28;20749;-61
2021/01/31 02:15:29;;;;;;;169.70;69.00;;;7.70;95.50;;;;;;4998899;28;20223;-61
2021/01/31 02:18:34;;;;;;;201.63;75.60;;;7.70;95.50;;;;;;5011262;28;20235;-61
2021/01/31 02:21:24;;;;;;;190.50;73.80;;;7.70;95.50;;;;;;5012695;28;20211;-61
2021/01/31 02:24:36;;;;;;;189.43;75.63;;;7.70;95.40;;;;;;5012397;28;20212;-61
2021/01/31 02:27:26;;;;;;;180.70;76.93;;;7.70;95.40;;;;;;5012902;28;20208;-61
2021/01/31 02:30:11;;;;;;;214.47;80.30;;;7.70;95.40;;;;;;5011838;28;20216;-61
2021/01/31 02:33:11;;;;;;;169.97;74.83;;;7.60;95.30;;;;;;5009945;28;20215;-61
2021/01/31 02:35:43;;;;;;;148.53;71.33;;;7.60;95.30;;;;;;5007334;28;20212;-61
2021/01/31 02:38:16;;;;;;;164.70;72.70;;;7.60;95.30;;;;;;5012362;28;20236;-61
2021/01/31 02:41:06;;;;;;;138.90;72.80;;;7.50;95.30;;;;;;4997086;28;20555;-61
2021/01/31 02:43:48;;;;;;;169.67;73.50;;;7.50;95.30;;;;;;4973899;28;20289;-61
2021/01/31 02:46:24;;;;;;;168.80;74.50;;;7.50;95.30;;;;;;5003760;28;20223;-61
2021/01/31 02:49:04;;;;;;;154.63;70.13;;;7.50;95.30;;;;;;5012395;28;20277;-61
2021/01/31 02:51:43;;;;;;;152.67;69.50;;;7.50;95.30;;;;;;5012132;28;20571;-61
2021/01/31 02:54:29;;;;;;;130.43;67.43;;;7.40;95.30;;;;;;5003293;28;20204;-61
2021/01/31 02:57:29;;;;;;;178.83;73.37;;;7.40;95.30;;;;;;5002190;28;20239;-61
2021/01/31 03:00:00;;;;;;;179.53;73.00;;;7.40;95.30;;;;;;4988619;28;20555;-61
2021/01/31 03:02:32;;;;;;;146.07;68.10;;;7.40;95.30;;;;;;5004012;28;20588;-61
2021/01/31 03:05:00;;;;;;;167.43;73.13;;;7.40;95.30;;;;;;4995160;28;20210;-61
2021/01/31 03:07:54;;;;;;;161.93;71.27;;;7.40;95.30;;;;;;5003859;28;20212;-61
2021/01/31 03:10:26;;;;;;;172.37;71.67;;;7.50;95.40;;;;;;4999778;28;20254;-61
2021/01/31 03:13:16;;;;;;;245.33;80.27;;;7.50;95.30;;;;;;4989864;28;20632;-61
2021/01/31 03:16:11;;;;;;;184.93;72.70;;;7.50;95.30;;;;;;5008857;28;20308;-61
2021/01/31 03:18:53;;;;;;;203.03;75.23;;;7.50;95.30;;;;;;5009199;28;20204;-61
2021/01/31 03:21:32;;;;;;;190.43;72.37;;;7.50;95.30;;;;;;5005924;28;20671;-62
2021/01/31 03:24:03;;;;;;;181.07;71.97;;;7.50;95.30;;;;;;4991357;28;20204;-62
2021/01/31 03:26:41;;;;;;;187.43;69.63;;;7.50;95.30;;;;;;5004866;28;20205;-62
2021/01/31 03:29:08;;;;;;;196.00;71.27;;;7.50;95.30;;;;;;5002065;28;20223;-61
2021/01/31 03:31:41;;;;;;;136.60;65.63;;;7.50;95.30;;;;;;5009319;28;20207;-61
2021/01/31 03:34:12;;;;;;;168.53;68.33;;;7.50;95.30;;;;;;5003480;28;20229;-61
2021/01/31 03:36:43;;;;;;;169.13;67.13;;;7.50;95.30;;;;;;4998192;28;20233;-61
2021/01/31 03:39:13;;;;;;;180.33;68.83;;;7.50;95.30;;;;;;5001333;28;20212;-61
2021/01/31 03:41:43;;;;;;;179.23;69.20;;;7.50;95.30;;;;;;5006058;28;20211;-61
2021/01/31 03:44:09;;;;;;;162.77;67.33;;;7.40;95.30;;;;;;5002487;28;20204;-61
2021/01/31 03:46:42;;;;;;;189.87;69.30;;;7.40;95.20;;;;;;5007250;28;20212;-61
2021/01/31 03:49:50;;;;;;;151.50;63.37;;;7.40;95.30;;;;;;5009256;28;20239;-61
2021/01/31 03:52:17;;;;;;;127.73;56.23;;;7.40;95.30;;;;;;4950506;28;20700;-62
2021/01/31 03:54:44;;;;;;;138.80;59.13;;;7.40;95.30;;;;;;4932932;29;20210;-61
2021/01/31 03:57:17;;;;;;;123.63;58.83;;;7.40;95.30;;;;;;4963314;28;20249;-61
2021/01/31 03:59:59;;;;;;;141.10;58.37;;;7.40;95.30;;;;;;4980902;28;20549;-61
2021/01/31 04:02:32;;;;;;;109.40;53.20;;;7.40;95.30;;;;;;5003207;28;20213;-61
2021/01/31 04:05:01;;;;;;;106.37;52.63;;;7.40;95.30;;;;;;5011227;28;20218;-61
2021/01/31 04:07:31;;;;;;;97.20;48.77;;;7.40;95.40;;;;;;5007827;28;20212;-61
2021/01/31 04:10:02;;;;;;;98.57;49.17;;;7.40;95.40;;;;;;5010829;28;20241;-61
2021/01/31 04:12:34;;;;;;;87.70;43.50;;;7.40;95.50;;;;;;5011403;28;20286;-61
2021/01/31 04:15:11;;;;;;;86.60;43.37;;;7.40;95.60;;;;;;5009156;28;20607;-61
2021/01/31 04:17:46;;;;;;;63.57;38.40;;;7.40;95.60;;;;;;5011624;28;20227;-61
2021/01/31 04:20:12;;;;;;;60.67;32.67;;;7.40;95.60;;;;;;4986282;28;20554;-61
2021/01/31 04:22:39;;;;;;;54.70;31.83;;;7.40;95.60;;;;;;5011946;28;20210;-62
2021/01/31 04:25:06;;;;;;;60.47;32.97;;;7.40;95.70;;;;;;5003289;28;20214;-61
2021/01/31 04:27:33;;;;;;;53.97;31.00;;;7.40;95.70;;;;;;5003980;28;20232;-62
2021/01/31 04:30:00;;;;;;;52.17;32.20;;;7.40;95.70;;;;;;5003802;28;20219;-62
2021/01/31 04:32:26;;;;;;;54.17;31.43;;;7.40;95.70;;;;;;4982170;28;20226;-62
2021/01/31 04:34:53;;;;;;;50.77;30.00;;;7.40;95.80;;;;;;4995600;28;20214;-62
2021/01/31 04:37:20;;;;;;;44.87;29.97;;;7.40;95.70;;;;;;5010580;28;20228;-62
2021/01/31 04:39:47;;;;;;;48.27;31.23;;;7.50;95.80;;;;;;5003607;28;20270;-62
2021/01/31 04:42:16;;;;;;;47.93;31.33;;;7.50;95.80;;;;;;4997830;28;20239;-62
2021/01/31 04:44:44;;;;;;;47.73;29.63;;;7.50;95.70;;;;;;5003993;28;20207;-62
2021/01/31 04:47:20;;;;;;;50.03;29.73;;;7.50;95.70;;;;;;4994132;28;20640;-62
2021/01/31 04:50:19;;;;;;;44.27;25.33;;;7.50;95.70;;;;;;5010503;28;20215;-62
2021/01/31 04:53:12;;;;;;;34.87;22.47;;;7.60;95.80;;;;;;5017705;28;20207;-62
2021/01/31 04:56:22;;;;;;;41.23;22.67;;;7.50;95.70;;;;;;5009974;28;20226;-62
2021/01/31 04:58:53;;;;;;;38.27;21.40;;;7.60;95.70;;;;;;4932280;29;20218;-62
2021/01/31 05:01:27;;;;;;;36.23;19.40;;;7.60;95.70;;;;;;4924269;28;20726;-62
2021/01/31 05:04:10;;;;;;;40.60;20.77;;;7.60;95.70;;;;;;4978661;28;20220;-63
2021/01/31 05:06:43;;;;;;;39.87;21.43;;;7.60;95.70;;;;;;5010262;28;20212;-62
2021/01/31 05:09:22;;;;;;;50.10;26.37;;;7.60;95.60;;;;;;5004891;28;20215;-62
2021/01/31 05:12:07;;;;;;;56.27;32.70;;;7.60;95.90;;;;;;4970666;28;20213;-62
2021/01/31 05:14:34;;;;;;;82.80;36.57;;;7.60;95.60;;;;;;4962369;28;20222;-62
2021/01/31 05:17:01;;;;;;;87.93;44.10;;;7.60;95.60;;;;;;4969163;28;20740;-62
2021/01/31 05:19:31;;;;;;;94.67;50.30;;;7.50;95.60;;;;;;4965942;28;20637;-62
2021/01/31 05:21:58;;;;;;;111.13;59.27;;;7.50;95.50;;;;;;4949892;28;20616;-62
2021/01/31 05:24:26;;;;;;;117.30;59.03;;;7.50;95.50;;;;;;4971867;28;20216;-62
2021/01/31 05:26:59;;;;;;;110.67;58.67;;;7.50;95.50;;;;;;4972239;28;20209;-62
2021/01/31 05:29:32;;;;;;;129.80;62.33;;;7.40;95.40;;;;;;4972204;28;20285;-61
2021/01/31 05:32:08;;;;;;;135.07;65.87;;;7.30;95.40;;;;;;4954159;28;20219;-62
2021/01/31 05:34:39;;;;;;;119.57;62.87;;;7.40;95.40;;;;;;4967903;28;20294;-62
2021/01/31 05:37:25;;;;;;;120.00;66.37;;;7.30;95.40;;;;;;4955154;28;20563;-62
2021/01/31 05:40:05;;;;;;;123.50;64.47;;;7.30;95.40;;;;;;4973145;28;20821;-62
2021/01/31 05:42:40;;;;;;;136.93;66.00;;;7.20;95.40;;;;;;4972782;28;20535;-62
2021/01/31 05:45:38;;;;;;;134.13;68.97;;;7.20;95.30;;;;;;4956817;28;20235;-62
2021/01/31 05:48:35;;;;;;;168.50;73.30;;;7.10;95.40;;;;;;4958319;28;20213;-62
2021/01/31 05:51:14;;;;;;;140.27;67.30;;;7.10;95.40;;;;;;4959236;28;20209;-62
2021/01/31 05:53:41;;;;;;;148.30;69.67;;;7.10;95.40;;;;;;4972061;28;20213;-62
2021/01/31 05:56:22;;;;;;;153.73;70.37;;;7.10;95.30;;;;;;4952292;28;20228;-62
2021/01/31 05:59:00;;;;;;;139.57;69.93;;;7.10;95.30;;;;;;4973775;28;20629;-62
2021/01/31 06:01:27;;;;;;;152.73;72.53;;;7.10;95.30;;;;;;4973343;28;20215;-62
2021/01/31 06:04:10;;;;;;;146.87;72.80;;;7.10;95.30;;;;;;4968922;28;20207;-62
2021/01/31 06:06:37;;;;;;;168.00;76.57;;;7.10;95.30;;;;;;4975385;28;20205;-61
2021/01/31 06:09:28;;;;;;;156.20;72.10;;;7.00;95.30;;;;;;4973293;28;20285;-62
2021/01/31 06:12:05;;;;;;;160.60;75.33;;;7.00;95.30;;;;;;4988537;28;20205;-62
2021/01/31 06:14:33;;;;;;;139.93;70.37;;;7.00;95.30;;;;;;4995150;28;20219;-62
2021/01/31 06:17:08;;;;;;;139.33;70.97;;;7.00;95.30;;;;;;4977748;28;20233;-62
2021/01/31 06:19:37;;;;;;;142.53;74.33;;;7.00;95.30;;;;;;4989296;28;20204;-62
2021/01/31 06:22:06;;;;;;;137.27;73.00;;;7.00;95.30;;;;;;4977301;28;20636;-62
2021/01/31 06:24:48;;;;;;;135.10;70.13;;;7.00;95.30;;;;;;4981808;28;20221;-62
2021/01/31 06:27:36;;;;;;;156.60;77.60;;;7.00;95.30;;;;;;4982561;28;20223;-62
2021/01/31 06:30:10;;;;;;;165.97;77.63;;;7.00;95.30;;;;;;4989707;28;20223;-62
2021/01/31 06:32:37;;;;;;;146.13;74.37;;;7.00;95.30;;;;;;4992711;28;20222;-61
2021/01/31 06:35:08;;;;;;;147.60;74.13;;;7.00;95.30;;;;;;4988813;28;20208;-62
2021/01/31 06:37:59;;;;;;;160.37;76.70;;;7.00;95.30;;;;;;4984688;28;20257;-62
2021/01/31 06:40:35;;;;;;;150.80;71.60;;;7.00;95.20;;;;;;4988862;28;20583;-62
2021/01/31 06:43:16;;;;;;;120.97;70.30;;;7.00;95.20;;;;;;4989227;28;20200;-62
2021/01/31 06:46:04;;;;;;;126.23;68.77;;;7.00;95.20;;;;;;4994046;28;20678;-61
2021/01/31 06:48:51;;;;;;;138.70;71.07;;;7.00;95.20;;;;;;4977756;28;20220;-61
2021/01/31 06:51:40;;;;;;;130.33;69.07;;;7.00;95.20;;;;;;4989613;28;20213;-62
2021/01/31 06:54:42;;;;;;;126.87;67.53;;;7.00;95.20;;;;;;4993601;28;20224;-62
2021/01/31 06:57:36;;;;;;;124.30;66.47;;;7.00;95.20;;;;;;4996660;28;20241;-62
2021/01/31 07:00:15;;;;;;;133.53;69.30;;;7.00;95.50;;;;;;4991175;28;20218;-62
2021/01/31 07:03:10;;;;;;;123.23;69.27;;;7.00;95.20;;;;;;4993543;28;20204;-62
2021/01/31 07:06:02;;;;;;;131.47;69.10;;;7.00;95.20;;;;;;4986974;28;20207;-61
2021/01/31 07:08:53;;;;;;;124.47;70.03;;;7.00;95.20;;;;;;4987204;28;20537;-61
2021/01/31 07:11:43;;;;;;;114.40;64.13;;;6.90;95.10;;;;;;4990417;28;20247;-61
2021/01/31 07:14:34;;;;;;;138.33;69.70;;;7.00;95.20;;;;;;4989112;28;20231;-62
2021/01/31 07:17:13;;;;;;;128.60;68.27;;;6.90;95.10;;;;;;4985786;28;20237;-62
2021/01/31 07:19:45;;;;;;;145.27;69.87;;;6.90;95.10;;;;;;4991363;28;20216;-62
2021/01/31 07:22:23;;;;;;;124.10;67.90;;;6.90;95.20;;;;;;4989969;28;20290;-62
2021/01/31 07:24:57;;;;;;;108.97;64.80;;;7.00;95.20;;;;;;4988822;28;20222;-62
2021/01/31 07:27:28;;;;;;;134.10;69.20;;;6.90;95.20;;;;;;4974787;28;20586;-62
2021/01/31 07:30:01;;;;;;;142.07;69.67;;;7.00;95.20;;;;;;4992056;28;20210;-62
2021/01/31 07:32:35;;;;;;;139.57;69.00;;;7.00;95.20;;;;;;4985933;28;20212;-62
2021/01/31 07:35:08;;;;;;;127.97;66.20;;;7.00;95.20;;;;;;4987252;28;20216;-62
2021/01/31 07:37:37;;;;;;;131.20;68.03;;;7.00;95.20;;;;;;4972897;28;20252;-62
2021/01/31 07:40:12;;;;;;;122.30;65.20;;;7.00;95.20;;;;;;4971639;28;20660;-61
2021/01/31 07:42:42;;;;;;;114.33;61.93;;;7.00;95.20;;;;;;4985389;28;20203;-61
2021/01/31 07:45:13;;;;;;;124.10;64.03;;;7.00;95.20;;;;;;4980556;28;20213;-62
2021/01/31 07:47:40;;;;;;;126.93;67.57;;;7.10;95.20;;;;;;4982166;28;20225;-62
2021/01/31 07:50:07;;;;;;;116.40;61.87;;;7.00;95.20;;;;;;4987381;28;20205;-62
2021/01/31 07:52:46;;;;;;;108.40;62.13;;;7.10;95.20;;;;;;4987979;28;20208;-62
2021/01/31 07:55:24;;;;;;;104.60;59.90;;;7.10;95.10;;;;;;4974335;28;20209;-62
2021/01/31 07:58:04;;;;;;;105.10;57.77;;;7.10;95.10;;;;;;4983064;28;20240;-62
2021/01/31 08:00:35;;;;;;;100.60;57.07;;;7.10;95.20;;;;;;4989196;28;20200;-62
2021/01/31 08:03:24;;;;;;;123.77;62.00;;;7.10;95.20;;;;;;4985269;28;20218;-61
2021/01/31 08:05:58;;;;;;;101.27;58.87;;;7.10;95.10;;;;;;4983360;28;20216;-62
2021/01/31 08:08:43;;;;;;;106.50;59.67;;;7.00;95.10;;;;;;4980515;28;20217;-62
2021/01/31 08:11:31;;;;;;;109.87;57.87;;;7.10;95.20;;;;;;4983478;28;20254;-62
2021/01/31 08:14:00;;;;;;;105.87;57.50;;;7.10;95.20;;;;;;4977151;28;20213;-62
2021/01/31 08:16:48;;;;;;;106.10;58.20;;;7.10;95.20;;;;;;4982100;28;20217;-62
2021/01/31 08:19:17;;;;;;;107.50;57.50;;;7.00;95.20;;;;;;4991296;28;20211;-62
2021/01/31 08:21:57;;;;;;;105.30;57.77;;;7.10;95.20;;;;;;4988247;28;20217;-61
2021/01/31 08:25:03;;;;;;;115.33;60.10;;;7.10;95.20;;;;;;4983020;28;20212;-62
2021/01/31 08:27:38;;;;;;;110.47;59.37;;;7.10;95.20;;;;;;4988654;28;20231;-62
2021/01/31 08:30:23;;;;;;;109.13;57.17;;;7.10;95.30;;;;;;4983581;28;20211;-62
2021/01/31 08:33:01;;;;;;;105.73;57.80;;;7.10;95.20;;;;;;4985831;28;20208;-61
2021/01/31 08:35:34;;;;;;;108.43;59.27;;;7.10;95.20;;;;;;4969585;28;20223;-61
2021/01/31 08:38:16;;;;;;;107.50;59.00;;;7.10;95.20;;;;;;4984732;28;20250;-61
2021/01/31 08:41:08;;;;;;;116.60;60.17;;;7.10;95.30;;;;;;4992512;28;20602;-61
2021/01/31 08:43:40;;;;;;;114.03;57.97;;;7.20;95.30;;;;;;4962096;28;20216;-61
2021/01/31 08:46:21;;;;;;;112.37;60.50;;;7.20;95.30;;;;;;4987858;28;20204;-61
2021/01/31 08:49:03;;;;;;;109.60;58.77;;;7.20;95.30;;;;;;4975358;28;20301;-61
2021/01/31 08:51:35;;;;;;;106.30;57.70;;;7.20;95.30;;;;;;4984710;28;20652;-62
2021/01/31 08:54:17;;;;;;;112.40;58.47;;;7.20;95.30;;;;;;4988921;28;20231;-62
2021/01/31 08:56:51;;;;;;;127.87;62.13;;;7.30;95.30;;;;;;4987055;28;20213;-62
2021/01/31 08:59:32;;;;;;;110.60;58.20;;;7.20;95.30;;;;;;4979244;28;20219;-62
2021/01/31 09:02:17;;;;;;;107.40;56.17;;;7.30;95.30;;;;;;4985743;28;20212;-62
2021/01/31 09:04:59;;;;;;;109.83;58.23;;;7.30;95.30;;;;;;4980217;28;20215;-62
2021/01/31 09:07:32;;;;;;;106.47;56.53;;;7.30;95.30;;;;;;4992654;28;20267;-62
2021/01/31 09:10:24;;;;;;;110.10;56.50;;;7.30;95.30;;;;;;4991050;28;20240;-61
2021/01/31 09:13:06;;;;;;;107.67;57.77;;;7.30;95.30;;;;;;4983836;28;20702;-62
2021/01/31 09:15:33;;;;;;;102.27;56.57;;;7.30;95.30;;;;;;4995624;28;20647;-61
2021/01/31 09:18:23;;;;;;;108.90;56.97;;;7.30;95.30;;;;;;4995933;28;20320;-61
2021/01/31 09:20:51;;;;;;;101.90;54.17;;;7.30;95.30;;;;;;4988040;28;20203;-61
2021/01/31 09:23:34;;;;;;;104.17;55.80;;;7.30;95.30;;;;;;4996500;28;20220;-61
2021/01/31 09:26:02;;;;;;;109.43;55.43;;;7.30;95.30;;;;;;4989947;28;20216;-61
2021/01/31 09:28:30;;;;;;;95.83;52.97;;;7.30;95.30;;;;;;4988741;28;20219;-62
2021/01/31 09:31:06;;;;;;;95.10;51.87;;;7.30;95.30;;;;;;4993672;28;20219;-62
2021/01/31 09:33:41;;;;;;;114.50;55.43;;;7.40;95.40;;;;;;4994010;28;20228;-62
2021/01/31 09:36:27;;;;;;;110.93;54.20;;;7.40;95.40;;;;;;4995407;28;20230;-62
2021/01/31 09:38:56;;;;;;;90.23;51.23;;;7.40;95.40;;;;;;4993550;28;20231;-62
2021/01/31 09:41:24;;;;;;;101.60;53.63;;;7.40;95.40;;;;;;4995927;28;20219;-62
2021/01/31 09:44:06;;;;;;;103.43;52.87;;;7.40;95.40;;;;;;4979114;28;20213;-62
2021/01/31 09:46:34;;;;;;;84.97;47.87;;;7.40;95.30;;;;;;4990671;28;20200;-62
2021/01/31 09:49:25;;;;;;;99.90;52.23;;;7.40;95.30;;;;;;4974603;28;20588;-62
2021/01/31 09:51:53;;;;;;;86.10;49.83;;;7.50;95.40;;;;;;4979691;28;20239;-61
2021/01/31 09:54:30;;;;;;;93.63;49.40;;;7.50;95.40;;;;;;4991031;28;20223;-62
2021/01/31 09:57:03;;;;;;;104.63;51.63;;;7.50;95.30;;;;;;4992836;28;20558;-62
2021/01/31 09:59:35;;;;;;;110.80;52.83;;;7.50;95.30;;;;;;4985848;28;20213;-62
2021/01/31 10:02:22;;;;;;;97.13;51.87;;;7.50;95.30;;;;;;4990811;28;20538;-61
2021/01/31 10:05:01;;;;;;;94.50;48.93;;;7.50;95.30;;;;;;4990879;28;20244;-61
2021/01/31 10:07:33;;;;;;;97.97;50.43;;;7.50;95.30;;;;;;4990067;28;20230;-62
2021/01/31 10:10:20;;;;;;;99.43;50.07;;;7.50;95.30;;;;;;4990603;28;20267;-62
2021/01/31 10:12:46;;;;;;;104.97;51.50;;;7.50;95.30;;;;;;4974221;28;20221;-62
2021/01/31 10:15:36;;;;;;;101.70;50.57;;;7.60;95.30;;;;;;4972336;28;20209;-62
2021/01/31 10:18:02;;;;;;;88.13;49.17;;;7.60;95.30;;;;;;4973479;28;20229;-63
2021/01/31 10:20:40;;;;;;;95.50;49.13;;;7.60;95.30;;;;;;4974552;28;20218;-62
2021/01/31 10:23:14;;;;;;;92.97;47.13;;;7.60;95.30;;;;;;4973902;28;20207;-62
2021/01/31 10:25:56;;;;;;;78.13;45.53;;;7.60;95.30;;;;;;4966261;28;20279;-62
2021/01/31 10:28:35;;;;;;;84.03;44.90;;;7.60;95.30;;;;;;4965065;28;20213;-62
2021/01/31 10:31:03;;;;;;;87.97;45.00;;;7.60;95.30;;;;;;4963863;28;20242;-62
2021/01/31 10:33:47;;;;;;;76.70;42.50;;;7.70;95.30;;;;;;4975118;28;20209;-62
2021/01/31 10:36:16;;;;;;;85.03;44.80;;;7.70;95.30;;;;;;4966459;28;20221;-62
2021/01/31 10:38:44;;;;;;;69.70;42.97;;;7.70;95.20;;;;;;4970332;28;20668;-62
2021/01/31 10:41:11;;;;;;;72.53;41.53;;;7.70;95.20;;;;;;4969174;28;20214;-62
2021/01/31 10:43:38;;;;;;;85.90;42.37;;;7.70;95.20;;;;;;4984802;28;20211;-62
2021/01/31 10:46:05;;;;;;;79.10;44.17;;;7.80;95.20;;;;;;4973911;28;20227;-62
2021/01/31 10:48:31;;;;;;;76.00;43.27;;;7.80;95.20;;;;;;4970228;28;20214;-62
2021/01/31 10:50:58;;;;;;;73.33;41.67;;;7.80;95.10;;;;;;4973340;28;20209;-62
2021/01/31 10:53:25;;;;;;;78.73;40.87;;;7.90;95.10;;;;;;4969110;28;20300;-62
2021/01/31 10:55:52;;;;;;;65.03;40.70;;;7.90;95.10;;;;;;4964127;28;20217;-62
2021/01/31 10:58:19;;;;;;;65.50;40.30;;;7.90;95.10;;;;;;4980232;28;20240;-62
2021/01/31 11:00:45;;;;;;;68.07;40.27;;;7.90;95.10;;;;;;4982527;28;20208;-62
2021/01/31 11:03:12;;;;;;;70.00;39.17;;;8.00;95.10;;;;;;4972086;28;20217;-62
2021/01/31 11:05:38;;;;;;;72.53;40.80;;;7.90;95.10;;;;;;4983903;28;20217;-62
2021/01/31 11:08:05;;;;;;;75.53;41.77;;;8.00;95.10;;;;;;4974819;28;20213;-62
2021/01/31 11:10:32;;;;;;;68.57;39.90;;;8.00;95.10;;;;;;4977733;28;20244;-62
2021/01/31 11:12:58;;;;;;;69.87;41.70;;;8.00;95.00;;;;;;4984089;28;20241;-62
2021/01/31 11:15:26;;;;;;;74.50;41.27;;;8.00;95.00;;;;;;4969031;28;20226;-62
2021/01/31 11:17:53;;;;;;;66.80;40.47;;;8.00;95.00;;;;;;4963649;28;20229;-62
2021/01/31 11:20:19;;;;;;;84.17;42.63;;;8.00;95.00;;;;;;4982875;28;20201;-62
2021/01/31 11:22:46;;;;;;;61.93;37.27;;;8.00;95.00;;;;;;4973019;28;20205;-62
2021/01/31 11:25:12;;;;;;;64.93;37.73;;;8.00;95.00;;;;;;4971014;28;20206;-62
2021/01/31 11:27:39;;;;;;;69.87;40.03;;;8.00;94.90;;;;;;4983512;28;20229;-62
2021/01/31 11:30:06;;;;;;;79.07;41.83;;;8.00;95.00;;;;;;4974324;28;20212;-62
2021/01/31 11:32:32;;;;;;;72.43;38.93;;;8.00;95.10;;;;;;4976167;28;20201;-62
2021/01/31 11:34:59;;;;;;;71.97;39.77;;;8.00;95.00;;;;;;4971597;28;20223;-62
2021/01/31 11:37:26;;;;;;;66.73;39.10;;;8.00;95.00;;;;;;4975788;28;20244;-62
2021/01/31 11:39:52;;;;;;;66.53;38.47;;;8.00;95.00;;;;;;4972412;28;20220;-62
2021/01/31 11:42:18;;;;;;;70.20;40.07;;;8.00;95.10;;;;;;4979641;28;20243;-62
2021/01/31 11:44:45;;;;;;;75.03;40.33;;;8.00;95.00;;;;;;4984156;28;20560;-62
2021/01/31 11:47:12;;;;;;;88.60;41.73;;;8.00;95.10;;;;;;4968659;28;20601;-62
2021/01/31 11:49:39;;;;;;;83.80;40.80;;;8.00;95.10;;;;;;4971817;28;20298;-62
2021/01/31 11:52:06;;;;;;;108.23;44.23;;;8.00;95.10;;;;;;4963074;28;20263;-62
2021/01/31 11:54:33;;;;;;;73.03;40.07;;;8.00;95.10;;;;;;4965281;28;20292;-62
2021/01/31 11:57:00;;;;;;;90.07;42.03;;;8.00;95.10;;;;;;4969265;28;20220;-62
2021/01/31 11:59:27;;;;;;;90.40;41.57;;;8.10;95.10;;;;;;4980887;28;20216;-62
2021/01/31 12:01:54;;;;;;;77.17;39.63;;;8.10;95.20;;;;;;4960972;28;20593;-62
2021/01/31 12:04:21;;;;;;;83.87;40.77;;;8.10;95.20;;;;;;4968360;28;20218;-61
2021/01/31 12:06:47;;;;;;;76.83;38.90;;;8.10;95.20;;;;;;4982258;28;20631;-61
2021/01/31 12:09:15;;;;;;;84.17;40.00;;;8.10;95.10;;;;;;4987598;28;20254;-62
2021/01/31 12:11:42;;;;;;;89.73;41.00;;;8.10;95.20;;;;;;4969627;28;20240;-62
2021/01/31 12:14:09;;;;;;;76.27;39.73;;;8.10;95.20;;;;;;4975144;28;20223;-62
2021/01/31 12:16:35;;;;;;;76.77;40.93;;;8.10;95.20;;;;;;4957520;28;20666;-62
2021/01/31 12:19:03;;;;;;;75.73;38.87;;;8.10;95.20;;;;;;4955320;28;20236;-62
2021/01/31 12:21:29;;;;;;;76.50;39.80;;;8.10;95.20;;;;;;4969323;28;20219;-62
2021/01/31 12:23:56;;;;;;;78.70;40.17;;;8.20;95.20;;;;;;4972335;28;20203;-62
2021/01/31 12:26:25;;;;;;;90.50;43.17;;;8.20;95.20;;;;;;4967421;28;20737;-62
2021/01/31 12:28:52;;;;;;;83.97;40.63;;;8.20;95.20;;;;;;4969360;28;20237;-62
2021/01/31 12:31:18;;;;;;;87.97;42.03;;;8.20;95.20;;;;;;4975224;28;20234;-62
2021/01/31 12:33:45;;;;;;;91.50;42.20;;;8.20;95.20;;;;;;4976760;28;20538;-62
2021/01/31 12:36:12;;;;;;;86.00;41.37;;;8.20;95.10;;;;;;4970187;28;20237;-62
2021/01/31 12:38:39;;;;;;;86.87;42.57;;;8.20;95.10;;;;;;4981285;28;20735;-62
2021/01/31 12:41:06;;;;;;;87.53;42.97;;;8.20;95.20;;;;;;4974224;28;20204;-62
2021/01/31 12:43:32;;;;;;;88.60;43.50;;;8.20;95.20;;;;;;4963347;28;20654;-62
2021/01/31 12:45:59;;;;;;;85.83;42.87;;;8.30;95.20;;;;;;4971820;28;20205;-62
2021/01/31 12:48:25;;;;;;;95.57;44.80;;;8.30;95.20;;;;;;4988995;28;20212;-62
2021/01/31 12:50:52;;;;;;;99.47;45.27;;;8.30;95.10;;;;;;4967353;28;20652;-62
2021/01/31 12:53:19;;;;;;;106.63;46.37;;;8.30;95.10;;;;;;4971986;28;20693;-62
2021/01/31 12:55:45;;;;;;;103.00;46.37;;;8.30;95.10;;;;;;4976628;28;20220;-62
2021/01/31 12:58:12;;;;;;;100.07;46.27;;;8.30;95.20;;;;;;4974792;28;20245;-62
2021/01/31 13:00:39;;;;;;;109.57;49.10;;;8.30;95.10;;;;;;4977390;28;20208;-62
2021/01/31 13:03:06;;;;;;;107.80;48.43;;;8.40;95.20;;;;;;4973314;28;20217;-63
2021/01/31 13:05:33;;;;;;;93.00;44.67;;;8.40;95.20;;;;;;4974645;28;20204;-62